Time;durP1;ratioP1;P1;durP2;ratioP2;P2;SDS_P1;SDS_P2;PMS_P1;PMS_P2;Temp;Humidity;BMP_temperature;BMP_pressure;BME280_temperature;BME280_humidity;BME280_pressure;Samples;Min_cycle;Max_cycle;Signal;HPM_P1;HPM_P2
2023/06/13 00:01:56;;;;;;;0.00;0.00;;;;;;;28.02;24.12;101570.53;5011695;28;20367;-73
2023/06/13 00:04:23;;;;;;;0.00;0.00;;;;;;;28.04;24.40;101577.38;5011709;28;20041;-73
2023/06/13 00:06:56;;;;;;;0.00;0.00;;;;;;;28.07;23.66;101571.19;5012024;28;20125;-75
2023/06/13 00:09:23;;;;;;;0.00;0.00;;;;;;;28.06;23.72;101564.03;5011247;28;20033;-72
2023/06/13 00:11:51;;;;;;;0.00;0.00;;;;;;;27.96;23.55;101567.13;5011296;28;20030;-74
2023/06/13 00:14:19;;;;;;;0.00;0.00;;;;;;;27.79;23.88;101575.38;5010608;28;20041;-76
2023/06/13 00:16:47;;;;;;;0.00;0.00;;;;;;;27.81;24.02;101570.34;5011346;28;20077;-73
2023/06/13 00:19:13;;;;;;;0.00;0.00;;;;;;;27.87;23.99;101582.03;5011231;28;20049;-74
2023/06/13 00:21:38;;;;;;;0.00;0.00;;;;;;;27.93;24.31;101575.22;5013989;28;20525;-74
2023/06/13 00:24:04;;;;;;;0.00;0.00;;;;;;;27.41;24.49;101579.81;5014954;28;20038;-74
2023/06/13 00:26:29;;;;;;;0.00;0.00;;;;;;;27.74;24.21;101569.97;5015045;28;20041;-74
2023/06/13 00:28:55;;;;;;;0.00;0.00;;;;;;;27.76;24.38;101574.06;5013075;28;20395;-74
2023/06/13 00:31:20;;;;;;;0.00;0.00;;;;;;;27.54;24.64;101568.66;5015208;28;20033;-75
2023/06/13 00:33:50;;;;;;;0.00;0.00;;;;;;;27.20;25.52;101581.50;5014277;28;20029;-74
2023/06/13 00:36:20;;;;;;;0.00;0.00;;;;;;;27.09;25.27;101582.88;5014719;28;20033;-74
2023/06/13 00:38:48;;;;;;;0.00;0.00;;;;;;;26.97;25.90;101585.44;5014458;28;20038;-74
2023/06/13 00:41:14;;;;;;;0.00;0.00;;;;;;;26.88;26.41;101579.88;5012947;28;20096;-74
2023/06/13 00:43:39;;;;;;;0.00;0.00;;;;;;;27.01;25.68;101586.44;5013953;28;20034;-72
2023/06/13 00:46:05;;;;;;;0.00;0.00;;;;;;;26.91;25.22;101584.75;5014114;28;20080;-74
2023/06/13 00:48:32;;;;;;;0.00;0.00;;;;;;;26.88;25.48;101586.22;5014775;28;20022;-72
2023/06/13 00:51:01;;;;;;;0.00;0.00;;;;;;;26.79;26.04;101585.31;5014490;28;20030;-74
2023/06/13 00:53:29;;;;;;;0.00;0.00;;;;;;;26.78;25.80;101589.22;5014328;28;20034;-73
2023/06/13 00:55:56;;;;;;;0.00;0.00;;;;;;;26.75;25.88;101591.81;5012792;28;20121;-75
2023/06/13 00:58:22;;;;;;;0.05;0.05;;;;;;;26.80;25.54;101586.16;5014202;28;20668;-73
2023/06/13 01:00:49;;;;;;;0.00;0.00;;;;;;;26.79;25.71;101579.81;5015179;28;20074;-73
2023/06/13 01:03:15;;;;;;;0.43;0.00;;;;;;;26.53;25.90;101583.50;5014203;28;20557;-74
2023/06/13 01:05:42;;;;;;;0.00;0.00;;;;;;;26.49;26.37;101580.56;5012818;28;20030;-73
2023/06/13 01:08:12;;;;;;;0.00;0.00;;;;;;;26.57;26.71;101590.03;5014731;28;20113;-76
2023/06/13 01:10:40;;;;;;;0.00;0.00;;;;;;;26.95;25.63;101592.09;5015025;28;20030;-73
2023/06/13 01:13:11;;;;;;;0.00;0.00;;;;;;;26.82;26.21;101583.91;5013309;28;20026;-74
2023/06/13 01:15:53;;;;;;;0.00;0.00;;;;;;;26.67;26.82;101579.53;5015344;28;20017;-74
2023/06/13 01:18:24;;;;;;;0.00;0.00;;;;;;;26.55;26.10;101582.09;5015163;28;20453;-74
2023/06/13 01:20:56;;;;;;;0.00;0.00;;;;;;;26.07;27.00;101575.53;5015168;28;20038;-74
2023/06/13 01:23:37;;;;;;;0.00;0.00;;;;;;;26.36;26.27;101575.91;5014349;28;20072;-74
2023/06/13 01:26:14;;;;;;;0.00;0.00;;;;;;;26.35;26.76;101570.72;5014226;28;20041;-73
2023/06/13 01:28:43;;;;;;;0.00;0.00;;;;;;;26.29;26.43;101575.56;5013709;28;20128;-75
2023/06/13 01:31:15;;;;;;;0.00;0.00;;;;;;;26.29;26.17;101580.25;5013152;28;20076;-74
2023/06/13 01:33:42;;;;;;;0.03;0.03;;;;;;;26.38;26.47;101578.38;5013961;28;20512;-73
2023/06/13 01:36:08;;;;;;;0.00;0.00;;;;;;;26.36;26.05;101578.69;5013774;28;20072;-72
2023/06/13 01:38:34;;;;;;;0.00;0.00;;;;;;;26.26;26.30;101578.91;5013794;28;20034;-75
2023/06/13 01:40:59;;;;;;;0.00;0.00;;;;;;;26.17;26.45;101574.47;5013224;28;20499;-73
2023/06/13 01:43:24;;;;;;;0.00;0.00;;;;;;;26.05;26.67;101573.06;5013559;28;20041;-74
2023/06/13 01:45:57;;;;;;;0.00;0.00;;;;;;;25.93;26.67;101575.53;5014214;28;20022;-75
2023/06/13 01:48:38;;;;;;;0.00;0.00;;;;;;;26.09;26.78;101576.84;5013660;28;20418;-75
2023/06/13 01:51:13;;;;;;;0.00;0.00;;;;;;;25.67;26.85;101568.16;5010269;28;20034;-73
2023/06/13 01:53:49;;;;;;;0.00;0.00;;;;;;;25.73;26.76;101564.97;5014059;28;20034;-74
2023/06/13 01:56:19;;;;;;;0.00;0.00;;;;;;;25.73;27.00;101572.44;5013504;28;20113;-75
2023/06/13 01:59:00;;;;;;;0.00;0.00;;;;;;;25.70;26.69;101573.03;5013662;28;20042;-75
2023/06/13 02:01:26;;;;;;;0.00;0.00;;;;;;;25.86;26.64;101572.41;5014120;28;20041;-73
2023/06/13 02:03:53;;;;;;;0.00;0.00;;;;;;;25.91;26.54;101568.69;5014655;28;20056;-74
2023/06/13 02:06:18;;;;;;;0.05;0.05;;;;;;;25.87;26.75;101575.94;5013771;28;20034;-73
2023/06/13 02:08:45;;;;;;;0.08;0.08;;;;;;;25.74;26.73;101577.63;5013983;28;20517;-75
2023/06/13 02:11:10;;;;;;;0.00;0.00;;;;;;;25.65;27.16;101567.66;5014209;28;20137;-75
2023/06/13 02:13:36;;;;;;;0.10;0.10;;;;;;;25.80;26.70;101573.63;5014042;28;20124;-75
2023/06/13 02:16:01;;;;;;;0.00;0.00;;;;;;;25.81;26.68;101571.66;5013540;28;20474;-74
2023/06/13 02:18:27;;;;;;;0.00;0.00;;;;;;;25.77;26.96;101576.16;5014415;28;20498;-76
2023/06/13 02:20:53;;;;;;;0.00;0.00;;;;;;;25.60;27.34;101570.47;5013633;28;20126;-74
2023/06/13 02:23:19;;;;;;;0.00;0.00;;;;;;;25.50;27.16;101570.69;5011770;28;20030;-74
2023/06/13 02:25:46;;;;;;;0.00;0.00;;;;;;;25.48;27.23;101578.44;5013479;28;20049;-74
2023/06/13 02:28:12;;;;;;;0.05;0.05;;;;;;;25.64;26.87;101575.09;5012965;28;20024;-75
2023/06/13 02:30:37;;;;;;;0.10;0.10;;;;;;;25.55;27.25;101574.16;5013633;28;20370;-74
2023/06/13 02:33:03;;;;;;;0.00;0.00;;;;;;;25.42;26.88;101572.22;5013102;28;20049;-77
2023/06/13 02:35:29;;;;;;;0.00;0.00;;;;;;;25.65;27.04;101576.69;5012005;28;20088;-75
2023/06/13 02:37:54;;;;;;;0.03;0.03;;;;;;;25.41;26.98;101570.63;5012776;28;20056;-76
2023/06/13 02:40:23;;;;;;;0.05;0.05;;;;;;;25.42;27.23;101572.22;5012738;28;20099;-75
2023/06/13 02:42:50;;;;;;;0.00;0.00;;;;;;;25.11;28.21;101574.75;5012338;28;20018;-75
2023/06/13 02:45:16;;;;;;;0.00;0.00;;;;;;;25.17;27.51;101570.78;5006808;28;20034;-74
2023/06/13 02:47:42;;;;;;;0.00;0.00;;;;;;;25.34;27.39;101566.59;5007217;28;20507;-76
2023/06/13 02:50:08;;;;;;;0.00;0.00;;;;;;;25.21;27.82;101573.75;5012136;28;20105;-74
2023/06/13 02:52:33;;;;;;;0.10;0.00;;;;;;;25.26;27.49;101565.38;5012568;28;20034;-74
2023/06/13 02:54:59;;;;;;;0.00;0.00;;;;;;;25.15;27.87;101567.53;5012509;28;20029;-74
2023/06/13 02:57:25;;;;;;;0.00;0.00;;;;;;;25.10;28.05;101567.59;5012920;28;20080;-74
2023/06/13 02:59:50;;;;;;;0.10;0.10;;;;;;;25.10;28.14;101567.59;5012041;28;20068;-76
2023/06/13 03:02:20;;;;;;;0.00;0.00;;;;;;;25.13;28.19;101574.44;5012366;28;20045;-75
2023/06/13 03:04:47;;;;;;;0.00;0.00;;;;;;;25.00;28.49;101572.50;5012195;28;20040;-73
2023/06/13 03:07:16;;;;;;;0.00;0.00;;;;;;;25.02;28.33;101579.31;5012302;28;20465;-75
2023/06/13 03:09:41;;;;;;;0.00;0.00;;;;;;;24.95;28.22;101573.41;5012908;28;20308;-75
2023/06/13 03:12:07;;;;;;;0.10;0.00;;;;;;;24.96;28.22;101574.22;5013515;28;20092;-74
2023/06/13 03:14:33;;;;;;;0.00;0.00;;;;;;;24.87;28.34;101579.59;5011072;28;20351;-75
2023/06/13 03:16:59;;;;;;;0.00;0.00;;;;;;;24.92;28.55;101578.69;5010380;28;20045;-75
2023/06/13 03:19:24;;;;;;;0.00;0.00;;;;;;;24.94;28.77;101577.25;5011225;28;20034;-75
2023/06/13 03:21:50;;;;;;;0.00;0.00;;;;;;;24.63;28.83;101570.63;5011957;28;20040;-74
2023/06/13 03:24:15;;;;;;;0.10;0.10;;;;;;;24.74;29.13;101577.66;5010746;28;20133;-78
2023/06/13 03:26:41;;;;;;;0.15;0.05;;;;;;;24.88;28.72;101573.00;5011596;28;20046;-75
2023/06/13 03:29:07;;;;;;;0.05;0.05;;;;;;;24.88;28.51;101573.00;5011763;28;20053;-76
2023/06/13 03:31:32;;;;;;;0.00;0.00;;;;;;;24.82;28.63;101568.69;5012083;28;20092;-74
2023/06/13 03:33:58;;;;;;;0.08;0.08;;;;;;;24.67;29.47;101576.38;5011653;28;20489;-76
2023/06/13 03:36:23;;;;;;;0.05;0.05;;;;;;;24.72;28.97;101574.38;5012063;28;20049;-74
2023/06/13 03:38:50;;;;;;;0.10;0.10;;;;;;;24.59;29.27;101579.81;5010721;28;20194;-76
2023/06/13 03:41:15;;;;;;;0.10;0.10;;;;;;;24.81;29.24;101575.31;5010474;28;20044;-75
2023/06/13 03:43:40;;;;;;;0.00;0.00;;;;;;;24.77;29.37;101577.03;5011839;28;20029;-76
2023/06/13 03:46:06;;;;;;;0.00;0.00;;;;;;;24.61;29.39;101585.81;5011552;28;20029;-77
2023/06/13 03:48:31;;;;;;;0.00;0.00;;;;;;;24.71;29.21;101575.44;5011606;28;20083;-75
2023/06/13 03:50:57;;;;;;;0.00;0.00;;;;;;;24.69;29.77;101577.69;5011170;28;20655;-74
2023/06/13 03:53:22;;;;;;;0.00;0.00;;;;;;;24.82;29.41;101579.69;5010265;28;20046;-76
2023/06/13 03:55:49;;;;;;;0.10;0.10;;;;;;;24.59;29.40;101590.81;5011379;28;20037;-77
2023/06/13 03:58:15;;;;;;;0.05;0.05;;;;;;;24.75;29.60;101584.75;5011061;28;20026;-73
2023/06/13 04:00:42;;;;;;;0.00;0.00;;;;;;;24.63;29.82;101584.38;5011954;28;20049;-75
2023/06/13 04:03:10;;;;;;;0.10;0.10;;;;;;;24.71;29.67;101580.94;5008350;28;20049;-75
2023/06/13 04:05:36;;;;;;;0.10;0.10;;;;;;;24.72;30.00;101582.63;5010744;28;20056;-75
2023/06/13 04:08:02;;;;;;;0.00;0.00;;;;;;;24.52;30.33;101587.59;5011256;28;20088;-74
2023/06/13 04:10:27;;;;;;;0.10;0.10;;;;;;;24.55;30.45;101584.28;5010609;28;20041;-75
2023/06/13 04:12:53;;;;;;;0.00;0.00;;;;;;;24.67;29.89;101587.38;5011413;28;20030;-76
2023/06/13 04:15:18;;;;;;;0.00;0.00;;;;;;;24.53;30.16;101589.25;5011319;28;20034;-75
2023/06/13 04:17:44;;;;;;;0.10;0.10;;;;;;;24.64;30.11;101586.03;5011152;28;20045;-74
2023/06/13 04:20:09;;;;;;;0.10;0.10;;;;;;;24.57;30.47;101588.31;5010206;28;20057;-76
2023/06/13 04:22:35;;;;;;;0.20;0.10;;;;;;;24.83;30.05;101589.56;5011568;28;20034;-76
2023/06/13 04:25:00;;;;;;;0.00;0.00;;;;;;;24.71;30.55;101586.44;5010423;28;20413;-75
2023/06/13 04:27:29;;;;;;;0.10;0.10;;;;;;;24.84;30.20;101588.47;5012088;28;20507;-75
2023/06/13 04:29:59;;;;;;;0.10;0.10;;;;;;;24.90;30.04;101589.19;5011004;28;20141;-76
2023/06/13 04:32:28;;;;;;;0.10;0.10;;;;;;;24.96;29.40;101594.28;5011003;28;20371;-76
2023/06/13 04:34:55;;;;;;;0.00;0.00;;;;;;;24.70;30.66;101586.75;5011108;28;20034;-75
2023/06/13 04:37:23;;;;;;;0.00;0.00;;;;;;;24.75;30.18;101582.00;5009809;28;20033;-75
2023/06/13 04:39:50;;;;;;;0.00;0.00;;;;;;;24.81;30.06;101580.81;5012030;28;20112;-75
2023/06/13 04:42:21;;;;;;;0.00;0.00;;;;;;;24.96;30.14;101588.78;5011074;28;20042;-76
2023/06/13 04:44:48;;;;;;;0.00;0.00;;;;;;;24.98;30.75;101588.50;5010099;28;20129;-77
2023/06/13 04:47:13;;;;;;;0.00;0.00;;;;;;;24.91;30.38;101588.88;5011214;28;20038;-77
2023/06/13 04:49:40;;;;;;;0.10;0.10;;;;;;;24.89;30.24;101587.53;5009965;28;20095;-76
2023/06/13 04:52:06;;;;;;;0.10;0.10;;;;;;;24.94;30.46;101582.75;5010716;28;20108;-75
2023/06/13 04:54:33;;;;;;;0.10;0.10;;;;;;;24.83;30.16;101581.31;5011050;28;20096;-75
2023/06/13 04:56:59;;;;;;;0.00;0.00;;;;;;;25.15;30.24;101583.22;5009846;28;20128;-76
2023/06/13 04:59:25;;;;;;;0.00;0.00;;;;;;;24.70;30.98;101584.81;5010992;28;20037;-77
2023/06/13 05:01:51;;;;;;;0.00;0.00;;;;;;;24.96;31.04;101588.78;5011317;28;20084;-76
2023/06/13 05:04:16;;;;;;;0.00;0.00;;;;;;;25.12;30.43;101583.78;5009838;28;20045;-76
2023/06/13 05:06:42;;;;;;;0.00;0.00;;;;;;;25.16;30.35;101588.41;5012808;28;20018;-74
2023/06/13 05:09:07;;;;;;;0.17;0.00;;;;;;;25.09;30.61;101588.00;5014746;28;20101;-76
2023/06/13 05:11:33;;;;;;;0.00;0.00;;;;;;;25.26;30.14;101596.47;5014299;28;20061;-75
2023/06/13 05:13:58;;;;;;;0.05;0.05;;;;;;;25.29;30.23;101589.53;5013086;28;20041;-75
2023/06/13 05:16:29;;;;;;;0.10;0.10;;;;;;;24.79;31.02;101590.47;5013907;28;20044;-77
2023/06/13 05:19:00;;;;;;;0.00;0.00;;;;;;;24.95;30.73;101591.81;5014253;28;20030;-76
2023/06/13 05:21:26;;;;;;;0.10;0.10;;;;;;;25.21;30.69;101599.31;5015031;28;20088;-75
2023/06/13 05:23:52;;;;;;;0.10;0.10;;;;;;;25.56;30.09;101594.25;5013815;28;20498;-76
2023/06/13 05:26:17;;;;;;;0.10;0.10;;;;;;;25.53;30.23;101597.63;5014777;28;20041;-73
2023/06/13 05:28:42;;;;;;;0.00;0.00;;;;;;;25.72;29.89;101599.13;5013217;28;20041;-70
2023/06/13 05:31:08;;;;;;;0.00;0.00;;;;;;;25.65;30.21;101595.97;5013360;28;20058;-70
2023/06/13 05:33:33;;;;;;;0.00;0.00;;;;;;;25.79;30.41;101596.78;5012998;28;20030;-72
2023/06/13 05:36:00;;;;;;;0.00;0.00;;;;;;;25.65;30.20;101595.97;5011138;28;20038;-71
2023/06/13 05:38:25;;;;;;;0.00;0.00;;;;;;;25.52;30.59;101593.22;5011630;28;20518;-70
2023/06/13 05:40:50;;;;;;;0.10;0.10;;;;;;;25.57;30.43;101598.66;5012011;28;20030;-70
2023/06/13 05:43:19;;;;;;;0.00;0.00;;;;;;;25.60;30.67;101603.53;5012213;28;20057;-68
2023/06/13 05:45:48;;;;;;;0.00;0.00;;;;;;;25.92;30.55;101597.88;5008063;28;20059;-70
2023/06/13 05:48:14;;;;;;;0.10;0.10;;;;;;;25.80;30.09;101600.34;5011972;28;20100;-69
2023/06/13 05:50:39;;;;;;;0.00;0.00;;;;;;;26.28;30.49;101606.19;5012191;28;20038;-69
2023/06/13 05:53:05;;;;;;;0.00;0.00;;;;;;;26.04;30.04;101609.97;5012545;28;20034;-70
2023/06/13 05:55:30;;;;;;;0.00;0.00;;;;;;;26.23;29.61;101611.81;5012525;28;20030;-71
2023/06/13 05:57:56;;;;;;;0.00;0.00;;;;;;;25.44;31.06;101611.28;5012993;28;20030;-69
2023/06/13 06:00:22;;;;;;;0.10;0.10;;;;;;;25.39;31.25;101610.53;5011999;28;20046;-70
2023/06/13 06:02:47;;;;;;;0.10;0.10;;;;;;;25.92;31.05;101609.72;5012367;28;20045;-69
2023/06/13 06:05:14;;;;;;;0.00;0.00;;;;;;;26.26;30.26;101617.50;5012051;28;20283;-69
2023/06/13 06:07:41;;;;;;;0.10;0.10;;;;;;;26.44;30.05;101610.19;5012358;28;20037;-70
2023/06/13 06:10:07;;;;;;;0.00;0.00;;;;;;;26.54;30.13;101612.69;5012234;28;20612;-69
2023/06/13 06:12:33;;;;;;;0.00;0.00;;;;;;;26.38;30.40;101606.75;5012230;28;20032;-70
2023/06/13 06:14:59;;;;;;;0.10;0.10;;;;;;;26.00;31.00;101614.47;5010632;28;20104;-71
2023/06/13 06:17:25;;;;;;;0.00;0.00;;;;;;;26.68;29.78;101616.22;5012261;28;20486;-72
2023/06/13 06:19:50;;;;;;;0.00;0.00;;;;;;;26.90;29.49;101617.06;5011945;28;20022;-72
2023/06/13 06:22:15;;;;;;;0.00;0.00;;;;;;;26.84;30.52;101614.72;5008997;28;20120;-71
2023/06/13 06:24:44;;;;;;;0.00;0.00;;;;;;;25.83;31.59;101608.81;5010711;28;20026;-70
2023/06/13 06:27:11;;;;;;;0.00;0.00;;;;;;;25.62;32.06;101615.88;5011330;28;20141;-68
2023/06/13 06:29:36;;;;;;;0.00;0.00;;;;;;;25.67;32.02;101612.19;5010984;28;20681;-70
2023/06/13 06:32:02;;;;;;;0.00;0.00;;;;;;;26.45;30.95;101609.91;5010674;28;20034;-72
2023/06/13 06:34:27;;;;;;;0.00;0.00;;;;;;;25.78;32.57;101621.88;5008363;28;20426;-69
2023/06/13 06:36:53;;;;;;;0.00;0.00;;;;;;;26.37;31.53;101612.56;5012244;28;20022;-70
2023/06/13 06:39:19;;;;;;;0.00;0.00;;;;;;;26.60;30.35;101611.44;5011443;28;20037;-71
2023/06/13 06:41:45;;;;;;;0.00;0.00;;;;;;;27.29;30.11;101612.69;5011632;28;20041;-70
2023/06/13 06:44:10;;;;;;;0.10;0.00;;;;;;;27.44;29.73;101613.13;5008617;28;20382;-70
2023/06/13 06:46:36;;;;;;;0.00;0.00;;;;;;;27.49;28.99;101612.97;5011652;28;20092;-71
2023/06/13 06:49:02;;;;;;;0.00;0.00;;;;;;;27.11;29.81;101619.25;5010615;28;20065;-71
2023/06/13 06:51:28;;;;;;;0.00;0.00;;;;;;;26.42;31.62;101623.47;5011441;28;20442;-71
2023/06/13 06:53:55;;;;;;;0.00;0.00;;;;;;;26.69;30.58;101624.16;5011490;28;20053;-71
2023/06/13 06:56:21;;;;;;;0.00;0.00;;;;;;;27.00;30.53;101620.66;5008525;28;20038;-72
2023/06/13 06:58:46;;;;;;;0.00;0.00;;;;;;;26.89;30.67;101625.63;5014217;28;20375;-71
2023/06/13 07:01:14;;;;;;;0.00;0.00;;;;;;;26.89;31.08;101631.16;5009741;28;20042;-72
2023/06/13 07:03:40;;;;;;;0.00;0.00;;;;;;;27.46;29.79;101629.38;5010920;28;20029;-71
2023/06/13 07:06:06;;;;;;;0.00;0.00;;;;;;;27.68;29.74;101621.00;5007166;28;20025;-72
2023/06/13 07:08:32;;;;;;;0.00;0.00;;;;;;;27.91;29.67;101627.22;5009783;28;20113;-73
2023/06/13 07:10:57;;;;;;;0.00;0.00;;;;;;;27.80;29.54;101632.22;5009445;28;20581;-72
2023/06/13 07:13:23;;;;;;;0.00;0.00;;;;;;;27.45;30.48;101628.56;5009630;28;20191;-71
2023/06/13 07:15:48;;;;;;;0.00;0.00;;;;;;;27.75;30.30;101627.66;5010361;28;20018;-70
2023/06/13 07:18:14;;;;;;;0.00;0.00;;;;;;;28.05;29.56;101630.72;5006779;28;20026;-70
2023/06/13 07:20:40;;;;;;;0.00;0.00;;;;;;;28.20;29.77;101636.56;5009558;28;20042;-72
2023/06/13 07:23:06;;;;;;;0.00;0.00;;;;;;;28.16;29.29;101638.34;5009761;28;20140;-69
2023/06/13 07:25:32;;;;;;;0.00;0.00;;;;;;;27.39;30.83;101640.06;5009547;28;20096;-71
2023/06/13 07:27:58;;;;;;;0.00;0.00;;;;;;;27.76;30.71;101643.13;5010295;28;20033;-68
2023/06/13 07:30:23;;;;;;;0.00;0.00;;;;;;;27.92;29.74;101639.91;5023616;28;20520;-73
2023/06/13 07:32:50;;;;;;;0.00;0.00;;;;;;;28.15;29.64;101635.91;5009333;28;20045;-70
2023/06/13 07:35:16;;;;;;;0.00;0.00;;;;;;;28.16;29.88;101637.53;5007302;28;20037;-72
2023/06/13 07:37:42;;;;;;;0.00;0.00;;;;;;;28.41;29.29;101636.72;5009666;28;20034;-71
2023/06/13 07:40:08;;;;;;;0.00;0.00;;;;;;;28.84;28.29;101640.31;5009193;28;20304;-69
2023/06/13 07:42:33;;;;;;;0.00;0.00;;;;;;;28.51;28.98;101628.94;5010798;28;20462;-70
2023/06/13 07:44:59;;;;;;;0.00;0.00;;;;;;;29.00;28.62;101637.84;5009748;28;20108;-71
2023/06/13 07:47:24;;;;;;;0.00;0.00;;;;;;;28.41;28.68;101639.50;5009750;28;20410;-72
2023/06/13 07:49:50;;;;;;;0.00;0.00;;;;;;;27.94;29.83;101637.63;5009737;28;20075;-71
2023/06/13 07:52:15;;;;;;;0.00;0.00;;;;;;;28.62;28.72;101634.97;5009745;28;20292;-70
2023/06/13 07:54:40;;;;;;;0.00;0.00;;;;;;;29.10;28.68;101640.25;5008868;28;20407;-70
2023/06/13 07:57:06;;;;;;;0.00;0.00;;;;;;;28.83;29.21;101633.16;5009605;28;20030;-71
2023/06/13 07:59:31;;;;;;;0.00;0.00;;;;;;;28.72;29.17;101633.84;5008099;28;20034;-71
2023/06/13 08:01:58;;;;;;;0.00;0.00;;;;;;;28.61;28.81;101644.41;5009578;28;20029;-72
2023/06/13 08:04:24;;;;;;;0.00;0.00;;;;;;;29.41;27.79;101636.09;5009523;28;20088;-71
2023/06/13 08:06:50;;;;;;;0.00;0.00;;;;;;;29.34;27.39;101633.03;5010390;28;20037;-70
2023/06/13 08:09:16;;;;;;;0.00;0.00;;;;;;;29.24;28.09;101638.13;5009475;28;20054;-73
2023/06/13 08:11:41;;;;;;;0.00;0.00;;;;;;;29.67;27.30;101641.53;5009970;28;20036;-70
2023/06/13 08:14:08;;;;;;;0.00;0.00;;;;;;;29.28;28.04;101634.38;5009530;28;20413;-70
2023/06/13 08:16:36;;;;;;;0.10;0.00;;;;;;;29.54;27.56;101639.81;5009345;28;20817;-70
2023/06/13 08:19:01;;;;;;;0.00;0.00;;;;;;;29.55;27.29;101633.09;5009493;28;20018;-71
2023/06/13 08:21:26;;;;;;;0.00;0.00;;;;;;;29.36;27.59;101635.47;5009365;28;20025;-74
2023/06/13 08:23:52;;;;;;;0.00;0.00;;;;;;;29.70;27.16;101632.53;5008858;28;20096;-76
2023/06/13 08:26:17;;;;;;;0.00;0.00;;;;;;;29.34;28.18;101635.81;5009041;28;20049;-70
2023/06/13 08:28:43;;;;;;;0.00;0.00;;;;;;;29.16;27.59;101638.97;5008815;28;20461;-68
2023/06/13 08:31:09;;;;;;;0.10;0.00;;;;;;;29.87;26.88;101643.56;5008839;28;20026;-70
2023/06/13 08:33:36;;;;;;;0.00;0.00;;;;;;;29.99;27.10;101637.28;5009514;28;20025;-70
2023/06/13 08:36:01;;;;;;;0.00;0.00;;;;;;;30.09;27.16;101634.91;5009122;28;20034;-70
2023/06/13 08:38:27;;;;;;;0.00;0.00;;;;;;;30.60;26.60;101633.72;5009185;28;20323;-70
2023/06/13 08:40:52;;;;;;;0.00;0.00;;;;;;;29.99;26.58;101640.88;5009012;28;20033;-71
2023/06/13 08:43:18;;;;;;;0.00;0.00;;;;;;;29.95;26.73;101633.56;5012417;28;20120;-70
2023/06/13 08:45:44;;;;;;;0.00;0.00;;;;;;;30.65;26.49;101644.63;5012952;28;20382;-68
2023/06/13 08:48:10;;;;;;;0.00;0.00;;;;;;;30.11;26.75;101642.91;5013008;28;20137;-71
2023/06/13 08:50:36;;;;;;;0.00;0.00;;;;;;;31.07;25.74;101629.53;5012223;28;20115;-68
2023/06/13 08:53:03;;;;;;;0.00;0.00;;;;;;;31.02;26.06;101640.00;5012579;28;20030;-69
2023/06/13 08:55:29;;;;;;;0.65;0.00;;;;;;;30.48;25.88;101628.13;5012442;28;20033;-69
2023/06/13 08:57:54;;;;;;;0.00;0.00;;;;;;;31.34;25.23;101635.56;5012740;28;20030;-69
2023/06/13 09:00:22;;;;;;;0.00;0.00;;;;;;;30.86;25.85;101637.09;5011743;28;20068;-70
2023/06/13 09:02:50;;;;;;;0.00;0.00;;;;;;;31.75;24.52;101624.25;5012451;28;20200;-70
2023/06/13 09:05:17;;;;;;;0.00;0.00;;;;;;;31.32;25.07;101629.53;5012138;28;20195;-68
2023/06/13 09:07:43;;;;;;;0.00;0.00;;;;;;;31.50;24.55;101629.03;5012375;28;20060;-68
2023/06/13 09:10:10;;;;;;;0.00;0.00;;;;;;;31.57;24.75;101620.91;5010788;28;20030;-69
2023/06/13 09:12:37;;;;;;;0.00;0.00;;;;;;;31.18;24.88;101624.31;5012894;28;20478;-72
2023/06/13 09:15:03;;;;;;;0.00;0.00;;;;;;;31.13;24.69;101627.31;5012135;28;20141;-69
2023/06/13 09:17:28;;;;;;;0.00;0.00;;;;;;;31.32;25.12;101624.81;5011831;28;20038;-70
2023/06/13 09:19:54;;;;;;;0.00;0.00;;;;;;;31.75;24.15;101619.50;5011827;28;20120;-69
2023/06/13 09:22:19;;;;;;;0.00;0.00;;;;;;;32.15;23.22;101614.03;5012044;28;20037;-69
2023/06/13 09:24:46;;;;;;;0.00;0.00;;;;;;;31.49;23.96;101616.25;5012540;28;20026;-69
2023/06/13 09:27:12;;;;;;;0.00;0.00;;;;;;;31.53;24.42;101625.53;5012125;28;20048;-69
2023/06/13 09:29:38;;;;;;;0.00;0.00;;;;;;;31.26;23.95;101623.41;5012292;28;20038;-70
2023/06/13 09:32:05;;;;;;;0.00;0.00;;;;;;;31.09;24.43;101623.63;5012278;28;20084;-69
2023/06/13 09:34:30;;;;;;;0.00;0.00;;;;;;;32.18;23.50;101612.53;5012230;28;20064;-70
2023/06/13 09:36:58;;;;;;;0.00;0.00;;;;;;;32.14;23.38;101615.19;4994895;28;20030;-72
2023/06/13 09:39:24;;;;;;;0.00;0.00;;;;;;;33.14;22.74;101612.09;5012310;28;20033;-71
2023/06/13 09:41:56;;;;;;;0.00;0.00;;;;;;;33.16;21.69;101600.59;5012303;28;20038;-69
2023/06/13 09:44:24;;;;;;;0.00;0.00;;;;;;;33.07;22.04;101600.78;5011699;28;20054;-71
2023/06/13 09:46:50;;;;;;;0.00;0.00;;;;;;;32.34;22.59;101597.50;5011853;28;20034;-69
2023/06/13 09:49:17;;;;;;;0.00;0.00;;;;;;;33.32;22.19;101602.19;5011764;28;20478;-70
2023/06/13 09:51:43;;;;;;;0.00;0.00;;;;;;;33.41;21.92;101605.63;5012284;28;20080;-70
2023/06/13 09:54:09;;;;;;;0.00;0.00;;;;;;;32.71;22.68;101604.53;5010435;28;20026;-68
2023/06/13 09:56:34;;;;;;;0.00;0.00;;;;;;;33.28;22.26;101603.28;5011693;28;20048;-69
2023/06/13 09:59:00;;;;;;;0.00;0.00;;;;;;;33.43;21.75;101591.31;5011460;28;20034;-70
2023/06/13 10:01:28;;;;;;;0.00;0.00;;;;;;;33.96;20.93;101592.59;5011432;28;20185;-70
2023/06/13 10:03:55;;;;;;;0.00;0.00;;;;;;;33.37;21.39;101590.81;5012011;28;20036;-68
2023/06/13 10:06:21;;;;;;;0.10;0.00;;;;;;;32.86;21.52;101580.69;5010987;28;20061;-70
2023/06/13 10:08:46;;;;;;;0.00;0.00;;;;;;;33.42;21.50;101581.34;5011347;28;20431;-70
2023/06/13 10:11:23;;;;;;;0.00;0.00;;;;;;;34.00;21.13;101585.13;5011376;28;20034;-69
2023/06/13 10:13:58;;;;;;;0.00;0.00;;;;;;;34.47;20.37;101582.97;5010893;28;20427;-69
2023/06/13 10:16:24;;;;;;;0.00;0.00;;;;;;;35.03;19.70;101581.25;5011177;28;20042;-69
2023/06/13 10:18:53;;;;;;;0.00;0.00;;;;;;;34.50;19.83;101573.84;5011471;28;20022;-69
2023/06/13 10:21:21;;;;;;;0.00;0.00;;;;;;;34.78;19.82;101584.75;5010670;28;20030;-69
2023/06/13 10:23:49;;;;;;;0.00;0.00;;;;;;;34.64;20.10;101582.50;5011245;28;20262;-71
2023/06/13 10:26:36;;;;;;;0.00;0.00;;;;;;;35.33;19.53;101578.56;5010837;28;20041;-70
2023/06/13 10:29:20;;;;;;;0.00;0.00;;;;;;;35.35;19.43;101582.59;5010461;28;20038;-70
2023/06/13 10:32:04;;;;;;;0.00;0.00;;;;;;;33.54;20.16;101573.72;5010882;28;20033;-68
2023/06/13 10:34:42;;;;;;;0.00;0.00;;;;;;;33.83;20.76;101579.97;5010744;28;20041;-69
2023/06/13 10:37:32;;;;;;;0.00;0.00;;;;;;;34.22;20.13;101576.84;5010532;28;20394;-70
2023/06/13 10:40:19;;;;;;;0.00;0.00;;;;;;;34.10;19.88;101567.81;5011247;28;20042;-69
2023/06/13 10:42:55;;;;;;;0.00;0.00;;;;;;;34.02;19.18;101578.03;5010928;28;20056;-70
2023/06/13 10:45:24;;;;;;;0.00;0.00;;;;;;;34.91;18.38;101569.44;5010503;28;20450;-69
2023/06/13 10:47:50;;;;;;;0.00;0.00;;;;;;;34.82;17.42;101578.06;5010580;28;20030;-69
2023/06/13 10:50:17;;;;;;;0.00;0.00;;;;;;;34.98;17.07;101577.97;5009387;28;20042;-69
2023/06/13 10:52:49;;;;;;;0.00;0.00;;;;;;;34.66;17.63;101568.16;5010357;28;20030;-69
2023/06/13 10:55:37;;;;;;;0.00;0.00;;;;;;;33.73;17.77;101564.56;5010541;28;20505;-68
2023/06/13 10:58:10;;;;;;;0.00;0.00;;;;;;;34.57;17.03;101562.00;5010234;28;20024;-67
2023/06/13 11:00:39;;;;;;;0.00;0.00;;;;;;;35.33;16.52;101564.59;5010765;28;20033;-69
2023/06/13 11:03:07;;;;;;;0.00;0.00;;;;;;;35.35;16.33;101556.63;5010301;28;20435;-69
2023/06/13 11:05:35;;;;;;;0.00;0.00;;;;;;;35.34;16.25;101550.22;5009498;28;20076;-69
2023/06/13 11:08:04;;;;;;;0.00;0.00;;;;;;;36.01;15.36;101554.03;5010404;28;20501;-69
2023/06/13 11:10:30;;;;;;;0.00;0.00;;;;;;;36.02;15.04;101555.66;5010305;28;20088;-69
2023/06/13 11:12:56;;;;;;;0.00;0.00;;;;;;;35.47;15.40;101552.84;5010796;28;20033;-69
2023/06/13 11:15:27;;;;;;;0.00;0.00;;;;;;;35.66;15.09;101547.94;5010258;28;20045;-70
2023/06/13 11:18:08;;;;;;;0.00;0.00;;;;;;;35.85;14.62;101553.38;5010220;28;20057;-69
2023/06/13 11:20:50;;;;;;;0.00;0.00;;;;;;;35.36;15.57;101544.28;5009940;28;20123;-70
2023/06/13 11:23:22;;;;;;;0.00;0.00;;;;;;;36.49;14.55;101537.44;5009820;28;20038;-69
2023/06/13 11:25:48;;;;;;;0.00;0.00;;;;;;;36.21;14.89;101532.28;5010035;28;20512;-68